sensor_id;sensor_type;location;lat;lon;timestamp;P1;durP1;ratioP1;P2;durP2;ratioP2
21833;SDS011;11079;51.092;3.458;2023-03-11T00:02:22;6.50;;;1.97;;
21833;SDS011;11079;51.092;3.458;2023-03-11T00:05:10;5.80;;;2.07;;
21833;SDS011;11079;51.092;3.458;2023-03-11T00:08:20;4.17;;;2.50;;
21833;SDS011;11079;51.092;3.458;2023-03-11T00:11:23;5.23;;;1.50;;
21833;SDS011;11079;51.092;3.458;2023-03-11T00:16:51;6.40;;;1.73;;
21833;SDS011;11079;51.092;3.458;2023-03-11T00:19:31;7.03;;;1.93;;
21833;SDS011;11079;51.092;3.458;2023-03-11T00:21:56;4.83;;;1.90;;
21833;SDS011;11079;51.092;3.458;2023-03-11T00:24:28;3.63;;;1.73;;
21833;SDS011;11079;51.092;3.458;2023-03-11T00:27:40;5.30;;;1.93;;
21833;SDS011;11079;51.092;3.458;2023-03-11T00:30:36;4.57;;;1.47;;
21833;SDS011;11079;51.092;3.458;2023-03-11T00:37:51;2.97;;;1.60;;
21833;SDS011;11079;51.092;3.458;2023-03-11T00:40:58;3.73;;;1.40;;
21833;SDS011;11079;51.092;3.458;2023-03-11T00:46:44;7.40;;;2.10;;
21833;SDS011;11079;51.092;3.458;2023-03-11T01:03:21;8.10;;;3.10;;
21833;SDS011;11079;51.092;3.458;2023-03-11T01:05:55;5.93;;;2.83;;
21833;SDS011;11079;51.092;3.458;2023-03-11T01:08:47;5.43;;;2.03;;
21833;SDS011;11079;51.092;3.458;2023-03-11T01:14:12;5.63;;;2.00;;
21833;SDS011;11079;51.092;3.458;2023-03-11T01:17:13;6.53;;;1.97;;
21833;SDS011;11079;51.092;3.458;2023-03-11T01:20:19;5.80;;;2.20;;
21833;SDS011;11079;51.092;3.458;2023-03-11T01:23:25;3.00;;;1.97;;
21833;SDS011;11079;51.092;3.458;2023-03-11T01:26:03;6.20;;;2.30;;
21833;SDS011;11079;51.092;3.458;2023-03-11T01:28:45;6.27;;;2.27;;
21833;SDS011;11079;51.092;3.458;2023-03-11T01:37:20;6.47;;;2.07;;
21833;SDS011;11079;51.092;3.458;2023-03-11T01:39:46;7.20;;;2.73;;
21833;SDS011;11079;51.092;3.458;2023-03-11T01:42:30;7.17;;;2.00;;
21833;SDS011;11079;51.092;3.458;2023-03-11T01:48:17;9.13;;;2.60;;
21833;SDS011;11079;51.092;3.458;2023-03-11T01:51:17;12.33;;;2.33;;
21833;SDS011;11079;51.092;3.458;2023-03-11T01:54:18;4.30;;;2.07;;
21833;SDS011;11079;51.092;3.458;2023-03-11T02:07:53;6.50;;;2.50;;
21833;SDS011;11079;51.092;3.458;2023-03-11T02:11:13;6.13;;;2.73;;
21833;SDS011;11079;51.092;3.458;2023-03-11T02:14:35;8.37;;;2.40;;
21833;SDS011;11079;51.092;3.458;2023-03-11T02:17:38;7.53;;;2.60;;
21833;SDS011;11079;51.092;3.458;2023-03-11T02:32:17;6.53;;;2.17;;
21833;SDS011;11079;51.092;3.458;2023-03-11T02:34:58;8.77;;;2.43;;
21833;SDS011;11079;51.092;3.458;2023-03-11T02:37:27;4.07;;;2.23;;
21833;SDS011;11079;51.092;3.458;2023-03-11T02:40:36;5.20;;;2.40;;
21833;SDS011;11079;51.092;3.458;2023-03-11T02:43:21;5.80;;;2.33;;
21833;SDS011;11079;51.092;3.458;2023-03-11T02:46:31;6.57;;;3.10;;
21833;SDS011;11079;51.092;3.458;2023-03-11T02:49:06;6.57;;;2.33;;
21833;SDS011;11079;51.092;3.458;2023-03-11T02:51:45;8.23;;;3.07;;
21833;SDS011;11079;51.092;3.458;2023-03-11T02:54:34;7.40;;;2.73;;
21833;SDS011;11079;51.092;3.458;2023-03-11T02:57:25;3.50;;;2.27;;
21833;SDS011;11079;51.092;3.458;2023-03-11T02:59:53;9.13;;;2.80;;
21833;SDS011;11079;51.092;3.458;2023-03-11T03:02:24;8.50;;;2.50;;
21833;SDS011;11079;51.092;3.458;2023-03-11T03:04:50;10.30;;;2.87;;
21833;SDS011;11079;51.092;3.458;2023-03-11T03:07:23;6.37;;;2.43;;
21833;SDS011;11079;51.092;3.458;2023-03-11T03:09:51;7.63;;;2.43;;
21833;SDS011;11079;51.092;3.458;2023-03-11T03:12:24;8.63;;;2.70;;
21833;SDS011;11079;51.092;3.458;2023-03-11T03:14:50;10.33;;;3.10;;
21833;SDS011;11079;51.092;3.458;2023-03-11T03:17:18;7.77;;;2.60;;
21833;SDS011;11079;51.092;3.458;2023-03-11T03:19:46;6.20;;;2.23;;
21833;SDS011;11079;51.092;3.458;2023-03-11T03:22:14;11.37;;;2.93;;
21833;SDS011;11079;51.092;3.458;2023-03-11T03:24:51;7.97;;;3.13;;
21833;SDS011;11079;51.092;3.458;2023-03-11T03:27:20;9.83;;;3.67;;
21833;SDS011;11079;51.092;3.458;2023-03-11T03:29:45;8.87;;;3.23;;
21833;SDS011;11079;51.092;3.458;2023-03-11T03:32:11;10.97;;;3.30;;
21833;SDS011;11079;51.092;3.458;2023-03-11T03:34:37;7.03;;;3.00;;
21833;SDS011;11079;51.092;3.458;2023-03-11T03:37:02;8.30;;;3.10;;
21833;SDS011;11079;51.092;3.458;2023-03-11T03:39:28;9.47;;;3.40;;
21833;SDS011;11079;51.092;3.458;2023-03-11T03:42:00;12.17;;;3.50;;
21833;SDS011;11079;51.092;3.458;2023-03-11T03:44:26;9.93;;;3.73;;
21833;SDS011;11079;51.092;3.458;2023-03-11T03:46:52;12.50;;;4.47;;
21833;SDS011;11079;51.092;3.458;2023-03-11T03:49:17;15.53;;;4.93;;
21833;SDS011;11079;51.092;3.458;2023-03-11T03:51:45;12.77;;;4.80;;
21833;SDS011;11079;51.092;3.458;2023-03-11T03:54:14;11.77;;;3.90;;
21833;SDS011;11079;51.092;3.458;2023-03-11T03:56:39;11.10;;;4.37;;
21833;SDS011;11079;51.092;3.458;2023-03-11T03:59:05;14.13;;;4.27;;
21833;SDS011;11079;51.092;3.458;2023-03-11T04:01:31;9.97;;;4.53;;
21833;SDS011;11079;51.092;3.458;2023-03-11T04:03:59;11.70;;;4.30;;
21833;SDS011;11079;51.092;3.458;2023-03-11T04:06:33;9.53;;;4.50;;
21833;SDS011;11079;51.092;3.458;2023-03-11T04:09:09;12.87;;;4.57;;
21833;SDS011;11079;51.092;3.458;2023-03-11T04:11:38;9.60;;;4.10;;
21833;SDS011;11079;51.092;3.458;2023-03-11T04:14:14;10.53;;;3.97;;
21833;SDS011;11079;51.092;3.458;2023-03-11T04:16:52;11.50;;;4.17;;
21833;SDS011;11079;51.092;3.458;2023-03-11T04:19:21;9.43;;;4.00;;
21833;SDS011;11079;51.092;3.458;2023-03-11T04:21:55;6.47;;;3.77;;
21833;SDS011;11079;51.092;3.458;2023-03-11T04:24:24;8.10;;;3.63;;
21833;SDS011;11079;51.092;3.458;2023-03-11T04:26:50;10.93;;;4.00;;
21833;SDS011;11079;51.092;3.458;2023-03-11T04:29:18;8.57;;;4.03;;
21833;SDS011;11079;51.092;3.458;2023-03-11T04:31:46;9.30;;;4.10;;
21833;SDS011;11079;51.092;3.458;2023-03-11T04:34:12;7.03;;;3.70;;
21833;SDS011;11079;51.092;3.458;2023-03-11T04:36:38;12.10;;;3.57;;
21833;SDS011;11079;51.092;3.458;2023-03-11T04:39:04;6.93;;;3.93;;
21833;SDS011;11079;51.092;3.458;2023-03-11T04:41:29;7.23;;;3.40;;
21833;SDS011;11079;51.092;3.458;2023-03-11T04:43:55;10.20;;;3.70;;
21833;SDS011;11079;51.092;3.458;2023-03-11T04:46:22;8.50;;;3.50;;
21833;SDS011;11079;51.092;3.458;2023-03-11T04:48:48;9.47;;;3.87;;
21833;SDS011;11079;51.092;3.458;2023-03-11T04:51:14;15.00;;;4.27;;
21833;SDS011;11079;51.092;3.458;2023-03-11T04:53:39;7.87;;;3.60;;
21833;SDS011;11079;51.092;3.458;2023-03-11T04:56:05;5.77;;;3.10;;
21833;SDS011;11079;51.092;3.458;2023-03-11T04:58:31;10.00;;;3.77;;
21833;SDS011;11079;51.092;3.458;2023-03-11T05:00:57;7.87;;;3.50;;
21833;SDS011;11079;51.092;3.458;2023-03-11T05:03:22;11.23;;;3.73;;
21833;SDS011;11079;51.092;3.458;2023-03-11T05:05:48;8.97;;;4.27;;
21833;SDS011;11079;51.092;3.458;2023-03-11T05:08:14;10.23;;;4.30;;
21833;SDS011;11079;51.092;3.458;2023-03-11T05:10:40;8.53;;;3.70;;
21833;SDS011;11079;51.092;3.458;2023-03-11T05:13:06;6.87;;;3.87;;
21833;SDS011;11079;51.092;3.458;2023-03-11T05:15:32;8.67;;;3.87;;
21833;SDS011;11079;51.092;3.458;2023-03-11T05:18:06;6.93;;;3.30;;
21833;SDS011;11079;51.092;3.458;2023-03-11T05:20:34;5.97;;;3.43;;
21833;SDS011;11079;51.092;3.458;2023-03-11T05:23:06;9.93;;;3.87;;
21833;SDS011;11079;51.092;3.458;2023-03-11T05:25:31;6.07;;;3.50;;
21833;SDS011;11079;51.092;3.458;2023-03-11T05:27:57;5.33;;;3.07;;
21833;SDS011;11079;51.092;3.458;2023-03-11T05:30:25;11.63;;;3.67;;
21833;SDS011;11079;51.092;3.458;2023-03-11T05:32:59;7.37;;;3.50;;
21833;SDS011;11079;51.092;3.458;2023-03-11T05:35:24;12.93;;;4.20;;
21833;SDS011;11079;51.092;3.458;2023-03-11T05:37:50;7.87;;;3.90;;
21833;SDS011;11079;51.092;3.458;2023-03-11T05:40:17;11.47;;;4.00;;
21833;SDS011;11079;51.092;3.458;2023-03-11T05:42:43;7.03;;;3.80;;
21833;SDS011;11079;51.092;3.458;2023-03-11T05:45:08;8.23;;;3.63;;
21833;SDS011;11079;51.092;3.458;2023-03-11T05:47:34;6.53;;;3.27;;
21833;SDS011;11079;51.092;3.458;2023-03-11T05:50:00;11.87;;;4.57;;
21833;SDS011;11079;51.092;3.458;2023-03-11T05:52:26;14.13;;;8.00;;
21833;SDS011;11079;51.092;3.458;2023-03-11T05:54:52;14.00;;;5.80;;
21833;SDS011;11079;51.092;3.458;2023-03-11T05:57:20;18.80;;;12.30;;
21833;SDS011;11079;51.092;3.458;2023-03-11T05:59:46;8.47;;;6.60;;
21833;SDS011;11079;51.092;3.458;2023-03-11T06:02:11;14.70;;;5.47;;
21833;SDS011;11079;51.092;3.458;2023-03-11T06:04:37;13.07;;;4.43;;
21833;SDS011;11079;51.092;3.458;2023-03-11T06:07:04;10.90;;;5.27;;
21833;SDS011;11079;51.092;3.458;2023-03-11T06:09:31;14.33;;;5.97;;
21833;SDS011;11079;51.092;3.458;2023-03-11T06:12:00;11.23;;;4.40;;
21833;SDS011;11079;51.092;3.458;2023-03-11T06:14:27;9.43;;;4.27;;
21833;SDS011;11079;51.092;3.458;2023-03-11T06:16:58;7.77;;;4.80;;
21833;SDS011;11079;51.092;3.458;2023-03-11T06:19:24;10.43;;;4.03;;
21833;SDS011;11079;51.092;3.458;2023-03-11T06:21:53;9.67;;;4.70;;
21833;SDS011;11079;51.092;3.458;2023-03-11T06:27:52;9.50;;;6.23;;
21833;SDS011;11079;51.092;3.458;2023-03-11T06:30:20;8.27;;;4.57;;
21833;SDS011;11079;51.092;3.458;2023-03-11T06:32:48;10.17;;;4.67;;
21833;SDS011;11079;51.092;3.458;2023-03-11T06:35:14;7.40;;;4.57;;
21833;SDS011;11079;51.092;3.458;2023-03-11T06:37:50;13.17;;;6.13;;
21833;SDS011;11079;51.092;3.458;2023-03-11T06:40:16;11.57;;;6.73;;
21833;SDS011;11079;51.092;3.458;2023-03-11T06:42:45;14.37;;;6.73;;
21833;SDS011;11079;51.092;3.458;2023-03-11T06:45:14;16.03;;;6.57;;
21833;SDS011;11079;51.092;3.458;2023-03-11T06:47:40;10.30;;;6.30;;
21833;SDS011;11079;51.092;3.458;2023-03-11T06:50:06;15.97;;;6.03;;
21833;SDS011;11079;51.092;3.458;2023-03-11T06:52:33;16.90;;;6.87;;
21833;SDS011;11079;51.092;3.458;2023-03-11T06:54:59;7.23;;;4.23;;
21833;SDS011;11079;51.092;3.458;2023-03-11T06:57:28;7.05;;;3.92;;
21833;SDS011;11079;51.092;3.458;2023-03-11T06:59:56;10.10;;;4.50;;
21833;SDS011;11079;51.092;3.458;2023-03-11T07:02:24;7.95;;;3.90;;
21833;SDS011;11079;51.092;3.458;2023-03-11T07:04:50;10.35;;;3.90;;
21833;SDS011;11079;51.092;3.458;2023-03-11T07:07:16;7.63;;;3.20;;
21833;SDS011;11079;51.092;3.458;2023-03-11T07:09:45;11.73;;;2.88;;
21833;SDS011;11079;51.092;3.458;2023-03-11T07:12:16;9.75;;;3.47;;
21833;SDS011;11079;51.092;3.458;2023-03-11T07:14:52;10.27;;;3.75;;
21833;SDS011;11079;51.092;3.458;2023-03-11T07:17:23;7.15;;;3.35;;
21833;SDS011;11079;51.092;3.458;2023-03-11T07:19:50;7.00;;;3.35;;
21833;SDS011;11079;51.092;3.458;2023-03-11T07:22:16;10.05;;;2.97;;
21833;SDS011;11079;51.092;3.458;2023-03-11T07:24:46;5.68;;;2.72;;
21833;SDS011;11079;51.092;3.458;2023-03-11T07:27:14;6.75;;;2.40;;
21833;SDS011;11079;51.092;3.458;2023-03-11T07:29:39;8.38;;;3.22;;
21833;SDS011;11079;51.092;3.458;2023-03-11T07:32:06;8.55;;;3.05;;
21833;SDS011;11079;51.092;3.458;2023-03-11T07:34:32;8.15;;;2.85;;
21833;SDS011;11079;51.092;3.458;2023-03-11T07:36:58;6.57;;;2.85;;
21833;SDS011;11079;51.092;3.458;2023-03-11T07:39:24;7.68;;;2.85;;
21833;SDS011;11079;51.092;3.458;2023-03-11T07:41:49;9.40;;;3.20;;
21833;SDS011;11079;51.092;3.458;2023-03-11T07:44:15;6.35;;;3.20;;
21833;SDS011;11079;51.092;3.458;2023-03-11T07:46:42;7.00;;;3.38;;
21833;SDS011;11079;51.092;3.458;2023-03-11T07:49:08;8.18;;;3.53;;
21833;SDS011;11079;51.092;3.458;2023-03-11T07:51:34;10.98;;;2.88;;
21833;SDS011;11079;51.092;3.458;2023-03-11T07:54:03;6.85;;;3.20;;
21833;SDS011;11079;51.092;3.458;2023-03-11T07:56:30;6.20;;;2.70;;
21833;SDS011;11079;51.092;3.458;2023-03-11T07:58:59;8.52;;;2.85;;
21833;SDS011;11079;51.092;3.458;2023-03-11T08:01:39;7.40;;;3.00;;
21833;SDS011;11079;51.092;3.458;2023-03-11T08:04:08;9.93;;;2.45;;
21833;SDS011;11079;51.092;3.458;2023-03-11T08:06:36;11.60;;;3.15;;
21833;SDS011;11079;51.092;3.458;2023-03-11T08:09:03;5.72;;;2.50;;
21833;SDS011;11079;51.092;3.458;2023-03-11T08:11:31;7.10;;;2.58;;
21833;SDS011;11079;51.092;3.458;2023-03-11T08:13:58;23.42;;;4.40;;
21833;SDS011;11079;51.092;3.458;2023-03-11T08:16:24;6.47;;;3.72;;
21833;SDS011;11079;51.092;3.458;2023-03-11T08:18:51;8.50;;;4.50;;
21833;SDS011;11079;51.092;3.458;2023-03-11T08:21:19;7.47;;;4.88;;
21833;SDS011;11079;51.092;3.458;2023-03-11T08:23:48;13.27;;;5.18;;
21833;SDS011;11079;51.092;3.458;2023-03-11T08:26:15;8.25;;;4.75;;
21833;SDS011;11079;51.092;3.458;2023-03-11T08:28:43;9.68;;;4.47;;
21833;SDS011;11079;51.092;3.458;2023-03-11T08:31:19;6.25;;;3.60;;
21833;SDS011;11079;51.092;3.458;2023-03-11T08:33:49;8.98;;;3.33;;
21833;SDS011;11079;51.092;3.458;2023-03-11T08:36:16;6.38;;;2.45;;
21833;SDS011;11079;51.092;3.458;2023-03-11T08:38:43;7.10;;;2.70;;
21833;SDS011;11079;51.092;3.458;2023-03-11T08:41:09;5.30;;;1.85;;
21833;SDS011;11079;51.092;3.458;2023-03-11T08:43:35;5.43;;;2.38;;
21833;SDS011;11079;51.092;3.458;2023-03-11T08:46:01;10.30;;;2.55;;
21833;SDS011;11079;51.092;3.458;2023-03-11T08:48:30;5.43;;;2.50;;
21833;SDS011;11079;51.092;3.458;2023-03-11T08:50:56;5.88;;;2.10;;
21833;SDS011;11079;51.092;3.458;2023-03-11T08:53:22;7.28;;;2.50;;
21833;SDS011;11079;51.092;3.458;2023-03-11T08:55:48;8.40;;;3.17;;
21833;SDS011;11079;51.092;3.458;2023-03-11T08:58:14;7.38;;;2.70;;
21833;SDS011;11079;51.092;3.458;2023-03-11T09:00:40;6.03;;;2.63;;
21833;SDS011;11079;51.092;3.458;2023-03-11T09:03:06;7.72;;;3.10;;
21833;SDS011;11079;51.092;3.458;2023-03-11T09:05:31;6.57;;;2.75;;
21833;SDS011;11079;51.092;3.458;2023-03-11T09:07:57;7.15;;;3.05;;
21833;SDS011;11079;51.092;3.458;2023-03-11T09:10:22;8.23;;;2.55;;
21833;SDS011;11079;51.092;3.458;2023-03-11T09:12:48;4.45;;;1.85;;
21833;SDS011;11079;51.092;3.458;2023-03-11T09:15:14;7.68;;;2.67;;
21833;SDS011;11079;51.092;3.458;2023-03-11T09:17:39;6.32;;;1.98;;
21833;SDS011;11079;51.092;3.458;2023-03-11T09:20:05;4.15;;;1.30;;
21833;SDS011;11079;51.092;3.458;2023-03-11T09:22:31;5.05;;;2.15;;
21833;SDS011;11079;51.092;3.458;2023-03-11T09:24:57;5.47;;;1.73;;
21833;SDS011;11079;51.092;3.458;2023-03-11T09:27:22;5.18;;;2.10;;
21833;SDS011;11079;51.092;3.458;2023-03-11T09:29:48;3.85;;;1.33;;
21833;SDS011;11079;51.092;3.458;2023-03-11T09:32:14;5.78;;;1.10;;
21833;SDS011;11079;51.092;3.458;2023-03-11T09:34:40;6.72;;;1.35;;
21833;SDS011;11079;51.092;3.458;2023-03-11T09:37:06;6.32;;;1.60;;
21833;SDS011;11079;51.092;3.458;2023-03-11T09:39:32;5.20;;;1.85;;
21833;SDS011;11079;51.092;3.458;2023-03-11T09:42:01;9.00;;;2.38;;
21833;SDS011;11079;51.092;3.458;2023-03-11T09:44:40;4.85;;;1.55;;
21833;SDS011;11079;51.092;3.458;2023-03-11T09:49:50;5.32;;;1.73;;
21833;SDS011;11079;51.092;3.458;2023-03-11T09:55:02;6.22;;;1.48;;
21833;SDS011;11079;51.092;3.458;2023-03-11T09:57:33;4.28;;;1.40;;
21833;SDS011;11079;51.092;3.458;2023-03-11T10:00:03;7.15;;;1.70;;
21833;SDS011;11079;51.092;3.458;2023-03-11T10:02:30;5.50;;;1.98;;
21833;SDS011;11079;51.092;3.458;2023-03-11T10:05:02;7.95;;;1.45;;
21833;SDS011;11079;51.092;3.458;2023-03-11T10:07:33;9.15;;;2.17;;
21833;SDS011;11079;51.092;3.458;2023-03-11T10:10:18;6.30;;;1.45;;
21833;SDS011;11079;51.092;3.458;2023-03-11T10:12:55;6.13;;;1.90;;
21833;SDS011;11079;51.092;3.458;2023-03-11T10:18:13;6.53;;;1.85;;
21833;SDS011;11079;51.092;3.458;2023-03-11T10:26:30;7.38;;;2.05;;
21833;SDS011;11079;51.092;3.458;2023-03-11T10:29:19;3.40;;;1.40;;
21833;SDS011;11079;51.092;3.458;2023-03-11T10:34:38;6.22;;;1.45;;
21833;SDS011;11079;51.092;3.458;2023-03-11T10:37:13;3.92;;;1.13;;
21833;SDS011;11079;51.092;3.458;2023-03-11T10:40:32;7.85;;;1.52;;
21833;SDS011;11079;51.092;3.458;2023-03-11T10:46:35;3.72;;;1.40;;
21833;SDS011;11079;51.092;3.458;2023-03-11T10:49:27;5.38;;;1.15;;
21833;SDS011;11079;51.092;3.458;2023-03-11T10:51:56;4.65;;;0.98;;
21833;SDS011;11079;51.092;3.458;2023-03-11T10:54:39;6.30;;;1.08;;
21833;SDS011;11079;51.092;3.458;2023-03-11T11:00:02;6.88;;;1.20;;
21833;SDS011;11079;51.092;3.458;2023-03-11T11:03:32;2.22;;;0.88;;
21833;SDS011;11079;51.092;3.458;2023-03-11T11:06:05;4.47;;;0.80;;
21833;SDS011;11079;51.092;3.458;2023-03-11T11:08:46;2.28;;;0.80;;
21833;SDS011;11079;51.092;3.458;2023-03-11T11:12:26;6.63;;;1.35;;
21833;SDS011;11079;51.092;3.458;2023-03-11T11:14:57;3.67;;;1.20;;
21833;SDS011;11079;51.092;3.458;2023-03-11T11:17:25;5.47;;;1.10;;
21833;SDS011;11079;51.092;3.458;2023-03-11T11:20:03;6.72;;;1.42;;
21833;SDS011;11079;51.092;3.458;2023-03-11T11:22:37;5.90;;;1.45;;
21833;SDS011;11079;51.092;3.458;2023-03-11T11:25:37;7.75;;;1.13;;
21833;SDS011;11079;51.092;3.458;2023-03-11T11:28:19;2.67;;;1.10;;
21833;SDS011;11079;51.092;3.458;2023-03-11T11:31:43;7.90;;;1.17;;
21833;SDS011;11079;51.092;3.458;2023-03-11T11:35:15;3.67;;;1.13;;
21833;SDS011;11079;51.092;3.458;2023-03-11T11:37:48;3.67;;;1.08;;
21833;SDS011;11079;51.092;3.458;2023-03-11T11:41:14;4.75;;;0.90;;
21833;SDS011;11079;51.092;3.458;2023-03-11T13:10:57;3.75;;;1.52;;
21833;SDS011;11079;51.092;3.458;2023-03-11T13:13:40;3.78;;;1.90;;
21833;SDS011;11079;51.092;3.458;2023-03-11T13:19:47;3.97;;;1.40;;
21833;SDS011;11079;51.092;3.458;2023-03-11T13:25:31;3.90;;;1.48;;
21833;SDS011;11079;51.092;3.458;2023-03-11T13:34:29;5.07;;;1.88;;
21833;SDS011;11079;51.092;3.458;2023-03-11T13:40:24;5.35;;;2.60;;
21833;SDS011;11079;51.092;3.458;2023-03-11T13:43:00;6.15;;;2.65;;
21833;SDS011;11079;51.092;3.458;2023-03-11T13:45:55;5.43;;;2.38;;
21833;SDS011;11079;51.092;3.458;2023-03-11T13:49:39;4.22;;;1.58;;
21833;SDS011;11079;51.092;3.458;2023-03-11T13:56:05;6.20;;;1.80;;
21833;SDS011;11079;51.092;3.458;2023-03-11T13:58:41;3.45;;;1.40;;
21833;SDS011;11079;51.092;3.458;2023-03-11T14:01:09;5.45;;;2.63;;
21833;SDS011;11079;51.092;3.458;2023-03-11T14:03:41;5.18;;;2.10;;
21833;SDS011;11079;51.092;3.458;2023-03-11T14:06:17;6.35;;;2.60;;
21833;SDS011;11079;51.092;3.458;2023-03-11T14:08:51;10.82;;;3.17;;
21833;SDS011;11079;51.092;3.458;2023-03-11T14:11:23;6.43;;;2.00;;
21833;SDS011;11079;51.092;3.458;2023-03-11T14:13:55;5.28;;;2.22;;
21833;SDS011;11079;51.092;3.458;2023-03-11T14:16:35;3.25;;;1.73;;
21833;SDS011;11079;51.092;3.458;2023-03-11T14:19:17;3.00;;;1.77;;
21833;SDS011;11079;51.092;3.458;2023-03-11T14:21:44;5.97;;;1.88;;
21833;SDS011;11079;51.092;3.458;2023-03-11T14:26:50;4.78;;;1.27;;
21833;SDS011;11079;51.092;3.458;2023-03-11T14:32:29;4.15;;;2.08;;
21833;SDS011;11079;51.092;3.458;2023-03-11T14:38:25;4.75;;;1.55;;
21833;SDS011;11079;51.092;3.458;2023-03-11T14:45:15;4.82;;;1.63;;
21833;SDS011;11079;51.092;3.458;2023-03-11T14:47:48;6.43;;;1.80;;
21833;SDS011;11079;51.092;3.458;2023-03-11T15:00:12;5.43;;;1.67;;
21833;SDS011;11079;51.092;3.458;2023-03-11T15:06:27;2.58;;;1.23;;
21833;SDS011;11079;51.092;3.458;2023-03-11T15:09:42;5.82;;;1.52;;
21833;SDS011;11079;51.092;3.458;2023-03-11T15:15:26;4.95;;;1.52;;
21833;SDS011;11079;51.092;3.458;2023-03-11T15:18:47;6.00;;;1.38;;
21833;SDS011;11079;51.092;3.458;2023-03-11T15:24:01;6.65;;;1.50;;
21833;SDS011;11079;51.092;3.458;2023-03-11T15:30:48;7.10;;;1.63;;
21833;SDS011;11079;51.092;3.458;2023-03-11T15:39:44;3.60;;;1.50;;
21833;SDS011;11079;51.092;3.458;2023-03-11T15:42:25;4.57;;;2.05;;
21833;SDS011;11079;51.092;3.458;2023-03-11T15:51:02;3.72;;;1.40;;
21833;SDS011;11079;51.092;3.458;2023-03-11T15:53:28;3.38;;;1.30;;
21833;SDS011;11079;51.092;3.458;2023-03-11T15:56:41;6.18;;;1.33;;
21833;SDS011;11079;51.092;3.458;2023-03-11T16:00:06;4.93;;;1.25;;
21833;SDS011;11079;51.092;3.458;2023-03-11T16:02:48;4.28;;;1.40;;
21833;SDS011;11079;51.092;3.458;2023-03-11T16:08:14;5.20;;;1.33;;
21833;SDS011;11079;51.092;3.458;2023-03-11T16:10:46;3.25;;;1.50;;
21833;SDS011;11079;51.092;3.458;2023-03-11T16:13:12;6.03;;;1.80;;
21833;SDS011;11079;51.092;3.458;2023-03-11T16:18:41;5.20;;;1.55;;
21833;SDS011;11079;51.092;3.458;2023-03-11T16:21:09;4.55;;;1.58;;
21833;SDS011;11079;51.092;3.458;2023-03-11T16:24:19;5.45;;;1.95;;
21833;SDS011;11079;51.092;3.458;2023-03-11T16:26:58;5.05;;;1.80;;
21833;SDS011;11079;51.092;3.458;2023-03-11T16:29:24;4.68;;;1.40;;
21833;SDS011;11079;51.092;3.458;2023-03-11T16:32:06;3.40;;;1.25;;
21833;SDS011;11079;51.092;3.458;2023-03-11T16:34:32;2.03;;;1.48;;
21833;SDS011;11079;51.092;3.458;2023-03-11T16:36:58;4.15;;;1.58;;
21833;SDS011;11079;51.092;3.458;2023-03-11T16:39:27;6.47;;;2.47;;
21833;SDS011;11079;51.092;3.458;2023-03-11T16:41:55;5.07;;;3.75;;
21833;SDS011;11079;51.092;3.458;2023-03-11T16:49:43;5.32;;;1.67;;
21833;SDS011;11079;51.092;3.458;2023-03-11T16:52:25;6.53;;;2.33;;
21833;SDS011;11079;51.092;3.458;2023-03-11T16:54:50;8.02;;;1.88;;
21833;SDS011;11079;51.092;3.458;2023-03-11T16:57:16;6.57;;;2.65;;
21833;SDS011;11079;51.092;3.458;2023-03-11T16:59:42;6.35;;;2.92;;
21833;SDS011;11079;51.092;3.458;2023-03-11T17:02:09;8.77;;;1.85;;
21833;SDS011;11079;51.092;3.458;2023-03-11T17:04:37;9.32;;;1.67;;
21833;SDS011;11079;51.092;3.458;2023-03-11T17:07:10;2.70;;;1.52;;
21833;SDS011;11079;51.092;3.458;2023-03-11T17:09:36;5.47;;;1.88;;
21833;SDS011;11079;51.092;3.458;2023-03-11T17:12:02;9.98;;;2.50;;
21833;SDS011;11079;51.092;3.458;2023-03-11T17:14:39;4.72;;;1.60;;
21833;SDS011;11079;51.092;3.458;2023-03-11T17:20:43;5.03;;;1.90;;
21833;SDS011;11079;51.092;3.458;2023-03-11T17:24:10;6.18;;;1.77;;
21833;SDS011;11079;51.092;3.458;2023-03-11T17:26:51;4.85;;;1.63;;
21833;SDS011;11079;51.092;3.458;2023-03-11T17:29:17;6.38;;;2.05;;
21833;SDS011;11079;51.092;3.458;2023-03-11T17:31:43;3.75;;;1.65;;
21833;SDS011;11079;51.092;3.458;2023-03-11T17:34:09;6.53;;;2.58;;
21833;SDS011;11079;51.092;3.458;2023-03-11T17:36:35;5.47;;;2.88;;
21833;SDS011;11079;51.092;3.458;2023-03-11T17:39:04;4.97;;;3.15;;
21833;SDS011;11079;51.092;3.458;2023-03-11T17:41:30;9.00;;;3.20;;
21833;SDS011;11079;51.092;3.458;2023-03-11T17:43:56;7.65;;;4.20;;
21833;SDS011;11079;51.092;3.458;2023-03-11T17:46:21;7.93;;;3.40;;
21833;SDS011;11079;51.092;3.458;2023-03-11T17:48:48;7.97;;;3.05;;
21833;SDS011;11079;51.092;3.458;2023-03-11T17:51:16;8.80;;;3.90;;
21833;SDS011;11079;51.092;3.458;2023-03-11T17:53:44;9.80;;;4.32;;
21833;SDS011;11079;51.092;3.458;2023-03-11T17:56:12;9.20;;;4.25;;
21833;SDS011;11079;51.092;3.458;2023-03-11T17:58:40;9.13;;;3.95;;
21833;SDS011;11079;51.092;3.458;2023-03-11T18:08:31;6.45;;;2.65;;
21833;SDS011;11079;51.092;3.458;2023-03-11T19:38:16;7.72;;;5.80;;
21833;SDS011;11079;51.092;3.458;2023-03-11T19:43:46;8.65;;;5.85;;
21833;SDS011;11079;51.092;3.458;2023-03-11T19:49:06;11.85;;;5.10;;
21833;SDS011;11079;51.092;3.458;2023-03-11T19:54:49;10.93;;;5.50;;
21833;SDS011;11079;51.092;3.458;2023-03-11T19:57:18;7.75;;;5.60;;
21833;SDS011;11079;51.092;3.458;2023-03-11T19:59:46;7.25;;;4.65;;
21833;SDS011;11079;51.092;3.458;2023-03-11T20:02:12;7.28;;;4.57;;
21833;SDS011;11079;51.092;3.458;2023-03-11T20:04:43;6.80;;;5.25;;
21833;SDS011;11079;51.092;3.458;2023-03-11T20:07:11;8.60;;;5.10;;
21833;SDS011;11079;51.092;3.458;2023-03-11T20:09:36;7.50;;;5.32;;
21833;SDS011;11079;51.092;3.458;2023-03-11T20:12:02;8.77;;;5.30;;
21833;SDS011;11079;51.092;3.458;2023-03-11T20:18:15;8.00;;;4.55;;
